Het weer levert geen direct gevaar op.    Er zijn geen waarschuwingen afgegeven.


Onweer radar Meer informatie blitzortung!


Regen radar Meer informatie rain snow radar


Bezoek onze andere website:

Template documentation
and downloads

And another site

Forum Leuven-template

EUWEATHER.EU

Verwachtingen Meteociel


U vindt ons ook hier:

Het Weer Aktueel

UK Metoffice

European Weather Network

WeatherCloud

Weather Underground

Benelux Weer Netwerk

AWEKAS

WeatherlinkIP

HAMweather, WeatherForYou, PWS Weather

Wetterpage 24

Wetter.com



METAR rapporten vliegvelden

   
EBAW - Antwerp
Gewijzigd: 15-11-2019 15:50
Grotendeels bewolkt  
Grotendeels bewolkt  
   Wind: OZO 14.8 km/h
Wind: OZO 14.8 km/h
Temperatuur: 5°C
Voelt als: 2°C
Dauwpunt: 2°C
Vochtigheid: 81%
Barometer: 1000 hPa
Bewolking: Grotendeels bewolkt
Zicht: 8 km
Bewolking: Gedeeltelijk bewolkt 1500 ft,
Grotendeels bewolkt 2800 ft
EBAW 151450Z 12008KT 8000 SCT015 BKN028 05/02 Q1000 NOSIG
EBLG - Li├Ęge
Gewijzigd: 15-11-2019 15:50
Grotendeels bewolkt  
Grotendeels bewolkt  
   Wind: Zuiden 14.8 km/h
Wind: Zuiden 14.8 km/h
Temperatuur: 6°C
Voelt als: 3°C
Dauwpunt: 2°C
Vochtigheid: 76%
Barometer: 999 hPa
Bewolking: Grotendeels bewolkt
Zicht: meer dan 10 km
Bewolking: Grotendeels bewolkt 2400 ft
EBLG 151450Z 17008KT 120V200 9999 BKN024 06/02 Q0999 NOSIG
EBCV - Mons/Bergen
Gewijzigd: 15-11-2019 15:25
Nevel, Bewolking  
Nevel, Bewolking  
   Wind: Oosten 13 km/h
Wind: Oosten 13 km/h
Temperatuur: 4°C
Voelt als: 1°C
Dauwpunt: 2°C
Vochtigheid: 87%
Barometer: 999 hPa
Bewolking: Bewolking
Zicht: 4 km
Bewolking: Bewolking 1400 ft
EBCV 151425Z AUTO 08007KT 4300 BR OVC014/// 04/02 Q0999 GRN
EHBK - Maastricht
Gewijzigd: 15-11-2019 15:25
Bewolking  
Bewolking  
   Wind: Oosten 14.8 km/h
Wind: Oosten 14.8 km/h
Temperatuur: 5°C
Voelt als: 2°C
Dauwpunt: 3°C
Vochtigheid: 87%
Barometer: 1000 hPa
Bewolking: Bewolking
Zicht: meer dan 10 km
Bewolking: Bewolking 2600 ft
EHBK 151425Z AUTO 09008KT 060V120 9999 OVC026 05/03 Q1000 NOSIG
ELLX - Luxemburg
Gewijzigd: 15-11-2019 15:50
Grotendeels bewolkt  
Grotendeels bewolkt  
   Wind: Zuiden 14.8 km/h
Wind: Zuiden 14.8 km/h
Temperatuur: 4°C
Voelt als: 1°C
Dauwpunt: 1°C
Vochtigheid: 81%
Barometer: 1000 hPa
Bewolking: Grotendeels bewolkt
Zicht: meer dan 10 km
Bewolking: Licht bewolkt 1000 ft,
Grotendeels bewolkt 1400 ft
ELLX 151450Z 18008KT 150V210 9999 FEW010 BKN014 04/01 Q1000 NOSIG
EBOS - Oostende
Gewijzigd: 15-11-2019 15:20
Grotendeels bewolkt  
Grotendeels bewolkt  
   Wind: ONO 22.2 km/h
Wind: ONO 22.2 km/h
Temperatuur: 5°C
Voelt als: 1°C
Dauwpunt: 2°C
Vochtigheid: 81%
Barometer: 999 hPa
Bewolking: Grotendeels bewolkt
Zicht: 8 km
Bewolking: Licht bewolkt 1100 ft,
Grotendeels bewolkt 1600 ft
EBOS 151420Z 07012KT 8000 FEW011 BKN016 05/02 Q0999 TEMPO BKN011

Script ontwikkeld door  Saratoga-weather.org Aangepast voor de template door  Weerstation Leuven

Apparatuur in gebruik:

Weerstation
Davis VP2

Weerprogramma
Meteobridge

Weercomputer
Asus WL -330N3G

Webleverancier
Onecom

Davis VP2

Meteobridge

Asus WL -330N3G

Onecom